sensor_id;sensor_type;location;lat;lon;timestamp;temperature;humidity
7720;DHT22;3902;49.474;8.616;2024-01-10T00:01:33;0.10;83.20
7720;DHT22;3902;49.474;8.616;2024-01-10T00:03:58;0.10;83.80
7720;DHT22;3902;49.474;8.616;2024-01-10T00:06:24;0.10;83.60
7720;DHT22;3902;49.474;8.616;2024-01-10T00:08:50;0.10;82.90
7720;DHT22;3902;49.474;8.616;2024-01-10T00:11:16;0.10;82.70
7720;DHT22;3902;49.474;8.616;2024-01-10T00:13:41;0.10;82.70
7720;DHT22;3902;49.474;8.616;2024-01-10T00:16:07;0.10;82.50
7720;DHT22;3902;49.474;8.616;2024-01-10T00:18:35;0.10;82.90
7720;DHT22;3902;49.474;8.616;2024-01-10T00:21:00;0.10;83.50
7720;DHT22;3902;49.474;8.616;2024-01-10T00:23:26;-0.10;82.50
7720;DHT22;3902;49.474;8.616;2024-01-10T00:25:51;0.00;82.80
7720;DHT22;3902;49.474;8.616;2024-01-10T00:28:17;0.00;83.10
7720;DHT22;3902;49.474;8.616;2024-01-10T00:30:44;0.00;83.10
7720;DHT22;3902;49.474;8.616;2024-01-10T00:33:10;0.00;82.30
7720;DHT22;3902;49.474;8.616;2024-01-10T00:35:37;0.10;82.70
7720;DHT22;3902;49.474;8.616;2024-01-10T00:38:03;0.10;82.50
7720;DHT22;3902;49.474;8.616;2024-01-10T00:40:28;0.00;81.60
7720;DHT22;3902;49.474;8.616;2024-01-10T00:42:54;-0.10;80.70
7720;DHT22;3902;49.474;8.616;2024-01-10T00:45:19;0.00;81.40
7720;DHT22;3902;49.474;8.616;2024-01-10T00:47:45;0.00;81.40
7720;DHT22;3902;49.474;8.616;2024-01-10T00:50:11;0.10;82.50
7720;DHT22;3902;49.474;8.616;2024-01-10T00:52:37;0.10;82.00
7720;DHT22;3902;49.474;8.616;2024-01-10T00:55:02;0.10;82.10
7720;DHT22;3902;49.474;8.616;2024-01-10T00:57:28;0.10;80.90
7720;DHT22;3902;49.474;8.616;2024-01-10T00:59:53;0.00;79.90
7720;DHT22;3902;49.474;8.616;2024-01-10T01:02:19;0.00;80.10
7720;DHT22;3902;49.474;8.616;2024-01-10T01:04:44;0.10;79.60
7720;DHT22;3902;49.474;8.616;2024-01-10T01:07:10;0.10;79.50
7720;DHT22;3902;49.474;8.616;2024-01-10T01:09:35;0.10;79.50
7720;DHT22;3902;49.474;8.616;2024-01-10T01:12:01;0.10;80.40
7720;DHT22;3902;49.474;8.616;2024-01-10T01:14:26;0.10;79.40
7720;DHT22;3902;49.474;8.616;2024-01-10T01:16:52;0.00;79.30
7720;DHT22;3902;49.474;8.616;2024-01-10T01:19:17;0.10;80.90
7720;DHT22;3902;49.474;8.616;2024-01-10T01:21:43;0.00;80.30
7720;DHT22;3902;49.474;8.616;2024-01-10T01:24:09;0.10;79.80
7720;DHT22;3902;49.474;8.616;2024-01-10T01:26:34;0.10;79.30
7720;DHT22;3902;49.474;8.616;2024-01-10T01:29:00;0.10;80.50
7720;DHT22;3902;49.474;8.616;2024-01-10T01:31:25;0.10;80.20
7720;DHT22;3902;49.474;8.616;2024-01-10T01:33:51;0.20;79.50
7720;DHT22;3902;49.474;8.616;2024-01-10T01:36:16;0.20;80.00
7720;DHT22;3902;49.474;8.616;2024-01-10T01:38:42;0.10;79.70
7720;DHT22;3902;49.474;8.616;2024-01-10T01:41:07;0.00;79.10
7720;DHT22;3902;49.474;8.616;2024-01-10T01:43:33;0.10;80.30
7720;DHT22;3902;49.474;8.616;2024-01-10T01:45:59;0.20;81.20
7720;DHT22;3902;49.474;8.616;2024-01-10T01:48:24;0.20;80.90
7720;DHT22;3902;49.474;8.616;2024-01-10T01:50:53;0.20;80.80
7720;DHT22;3902;49.474;8.616;2024-01-10T01:53:19;0.20;81.10
7720;DHT22;3902;49.474;8.616;2024-01-10T01:55:45;0.20;80.20
7720;DHT22;3902;49.474;8.616;2024-01-10T01:58:12;0.30;81.30
7720;DHT22;3902;49.474;8.616;2024-01-10T02:00:38;0.30;81.10
7720;DHT22;3902;49.474;8.616;2024-01-10T02:03:09;0.30;81.40
7720;DHT22;3902;49.474;8.616;2024-01-10T02:05:36;0.30;81.50
7720;DHT22;3902;49.474;8.616;2024-01-10T02:08:01;0.30;81.90
7720;DHT22;3902;49.474;8.616;2024-01-10T02:10:27;0.40;81.50
7720;DHT22;3902;49.474;8.616;2024-01-10T02:12:52;0.40;81.30
7720;DHT22;3902;49.474;8.616;2024-01-10T02:15:18;0.40;81.90
7720;DHT22;3902;49.474;8.616;2024-01-10T02:17:44;0.30;80.70
7720;DHT22;3902;49.474;8.616;2024-01-10T02:20:14;0.40;81.40
7720;DHT22;3902;49.474;8.616;2024-01-10T02:22:42;0.40;81.50
7720;DHT22;3902;49.474;8.616;2024-01-10T02:25:08;0.40;80.90
7720;DHT22;3902;49.474;8.616;2024-01-10T02:27:35;0.30;81.20
7720;DHT22;3902;49.474;8.616;2024-01-10T02:30:03;0.40;81.30
7720;DHT22;3902;49.474;8.616;2024-01-10T02:32:28;0.40;81.30
7720;DHT22;3902;49.474;8.616;2024-01-10T02:34:54;0.40;81.20
7720;DHT22;3902;49.474;8.616;2024-01-10T02:37:20;0.40;81.40
7720;DHT22;3902;49.474;8.616;2024-01-10T02:39:45;0.30;81.30
7720;DHT22;3902;49.474;8.616;2024-01-10T02:42:11;0.40;81.30
7720;DHT22;3902;49.474;8.616;2024-01-10T02:44:37;0.30;81.30
7720;DHT22;3902;49.474;8.616;2024-01-10T02:47:03;0.30;81.40
7720;DHT22;3902;49.474;8.616;2024-01-10T02:49:28;0.40;81.30
7720;DHT22;3902;49.474;8.616;2024-01-10T02:51:54;0.30;81.50
7720;DHT22;3902;49.474;8.616;2024-01-10T02:54:19;0.40;81.20
7720;DHT22;3902;49.474;8.616;2024-01-10T02:56:45;0.40;81.90
7720;DHT22;3902;49.474;8.616;2024-01-10T02:59:11;0.40;81.60
7720;DHT22;3902;49.474;8.616;2024-01-10T03:01:36;0.40;81.60
7720;DHT22;3902;49.474;8.616;2024-01-10T03:04:02;0.40;82.10
7720;DHT22;3902;49.474;8.616;2024-01-10T03:06:27;0.40;82.10
7720;DHT22;3902;49.474;8.616;2024-01-10T03:08:54;0.40;81.90
7720;DHT22;3902;49.474;8.616;2024-01-10T03:11:20;0.40;81.90
7720;DHT22;3902;49.474;8.616;2024-01-10T03:13:46;0.30;82.00
7720;DHT22;3902;49.474;8.616;2024-01-10T03:16:12;0.30;82.20
7720;DHT22;3902;49.474;8.616;2024-01-10T03:18:38;0.30;82.10
7720;DHT22;3902;49.474;8.616;2024-01-10T03:21:04;0.30;81.70
7720;DHT22;3902;49.474;8.616;2024-01-10T03:23:30;0.30;82.30
7720;DHT22;3902;49.474;8.616;2024-01-10T03:25:58;0.40;82.70
7720;DHT22;3902;49.474;8.616;2024-01-10T03:28:24;0.40;82.70
7720;DHT22;3902;49.474;8.616;2024-01-10T03:30:49;0.40;82.50
7720;DHT22;3902;49.474;8.616;2024-01-10T03:33:15;0.40;82.40
7720;DHT22;3902;49.474;8.616;2024-01-10T03:35:41;0.40;82.50
7720;DHT22;3902;49.474;8.616;2024-01-10T03:38:07;0.40;81.50
7720;DHT22;3902;49.474;8.616;2024-01-10T03:40:32;0.40;82.50
7720;DHT22;3902;49.474;8.616;2024-01-10T03:42:58;0.40;82.90
7720;DHT22;3902;49.474;8.616;2024-01-10T03:45:23;0.40;82.50
7720;DHT22;3902;49.474;8.616;2024-01-10T03:47:50;0.40;82.80
7720;DHT22;3902;49.474;8.616;2024-01-10T03:50:19;0.50;82.80
7720;DHT22;3902;49.474;8.616;2024-01-10T03:52:45;0.40;82.30
7720;DHT22;3902;49.474;8.616;2024-01-10T03:55:14;0.40;82.40
7720;DHT22;3902;49.474;8.616;2024-01-10T03:57:40;0.40;82.50
7720;DHT22;3902;49.474;8.616;2024-01-10T04:00:06;0.40;82.70
7720;DHT22;3902;49.474;8.616;2024-01-10T04:02:32;0.40;82.00
7720;DHT22;3902;49.474;8.616;2024-01-10T04:04:58;0.40;82.60
7720;DHT22;3902;49.474;8.616;2024-01-10T04:07:23;0.40;82.90
7720;DHT22;3902;49.474;8.616;2024-01-10T04:09:49;0.40;82.90
7720;DHT22;3902;49.474;8.616;2024-01-10T04:12:14;0.40;82.70
7720;DHT22;3902;49.474;8.616;2024-01-10T04:14:40;0.40;82.80
7720;DHT22;3902;49.474;8.616;2024-01-10T04:17:05;0.40;82.70
7720;DHT22;3902;49.474;8.616;2024-01-10T04:19:32;0.40;83.30
7720;DHT22;3902;49.474;8.616;2024-01-10T04:21:58;0.40;82.80
7720;DHT22;3902;49.474;8.616;2024-01-10T04:24:26;0.40;83.00
7720;DHT22;3902;49.474;8.616;2024-01-10T04:26:51;0.40;82.80
7720;DHT22;3902;49.474;8.616;2024-01-10T04:29:16;0.40;82.90
7720;DHT22;3902;49.474;8.616;2024-01-10T04:31:42;0.30;83.70
7720;DHT22;3902;49.474;8.616;2024-01-10T04:34:08;0.40;83.50
7720;DHT22;3902;49.474;8.616;2024-01-10T04:36:33;0.40;83.70
7720;DHT22;3902;49.474;8.616;2024-01-10T04:38:59;0.40;84.20
7720;DHT22;3902;49.474;8.616;2024-01-10T04:41:25;0.40;84.90
7720;DHT22;3902;49.474;8.616;2024-01-10T04:43:51;0.40;84.60
7720;DHT22;3902;49.474;8.616;2024-01-10T04:46:16;0.40;84.70
7720;DHT22;3902;49.474;8.616;2024-01-10T04:48:42;0.40;84.70
7720;DHT22;3902;49.474;8.616;2024-01-10T04:51:07;0.40;85.70
7720;DHT22;3902;49.474;8.616;2024-01-10T04:53:33;0.30;85.40
7720;DHT22;3902;49.474;8.616;2024-01-10T04:55:59;0.30;84.90
7720;DHT22;3902;49.474;8.616;2024-01-10T04:58:24;0.30;85.60
7720;DHT22;3902;49.474;8.616;2024-01-10T05:00:50;0.30;85.20
7720;DHT22;3902;49.474;8.616;2024-01-10T05:03:16;0.30;85.00
7720;DHT22;3902;49.474;8.616;2024-01-10T05:05:41;0.30;85.10
7720;DHT22;3902;49.474;8.616;2024-01-10T05:08:07;0.20;85.40
7720;DHT22;3902;49.474;8.616;2024-01-10T05:10:32;0.30;85.30
7720;DHT22;3902;49.474;8.616;2024-01-10T05:12:58;0.30;85.70
7720;DHT22;3902;49.474;8.616;2024-01-10T05:15:23;0.20;85.40
7720;DHT22;3902;49.474;8.616;2024-01-10T05:17:49;0.20;85.60
7720;DHT22;3902;49.474;8.616;2024-01-10T05:20:14;0.20;85.50
7720;DHT22;3902;49.474;8.616;2024-01-10T05:22:40;0.20;85.10
7720;DHT22;3902;49.474;8.616;2024-01-10T05:25:06;0.20;85.20
7720;DHT22;3902;49.474;8.616;2024-01-10T05:27:32;0.20;85.70
7720;DHT22;3902;49.474;8.616;2024-01-10T05:29:58;0.20;86.20
7720;DHT22;3902;49.474;8.616;2024-01-10T05:32:25;0.20;86.20
7720;DHT22;3902;49.474;8.616;2024-01-10T05:34:51;0.20;86.10
7720;DHT22;3902;49.474;8.616;2024-01-10T05:37:17;0.20;86.80
7720;DHT22;3902;49.474;8.616;2024-01-10T05:39:42;0.10;87.80
7720;DHT22;3902;49.474;8.616;2024-01-10T05:42:08;0.20;87.00
7720;DHT22;3902;49.474;8.616;2024-01-10T05:44:33;0.20;87.10
7720;DHT22;3902;49.474;8.616;2024-01-10T05:46:59;0.10;87.30
7720;DHT22;3902;49.474;8.616;2024-01-10T05:49:25;0.10;87.10
7720;DHT22;3902;49.474;8.616;2024-01-10T05:51:51;0.10;87.20
7720;DHT22;3902;49.474;8.616;2024-01-10T05:54:16;0.10;87.20
7720;DHT22;3902;49.474;8.616;2024-01-10T05:56:43;0.10;87.40
7720;DHT22;3902;49.474;8.616;2024-01-10T05:59:09;0.10;87.70
7720;DHT22;3902;49.474;8.616;2024-01-10T06:01:36;0.10;87.80
7720;DHT22;3902;49.474;8.616;2024-01-10T06:04:04;0.10;87.90
7720;DHT22;3902;49.474;8.616;2024-01-10T06:06:29;0.10;88.30
7720;DHT22;3902;49.474;8.616;2024-01-10T06:08:55;0.10;88.60
7720;DHT22;3902;49.474;8.616;2024-01-10T06:11:20;0.10;89.10
7720;DHT22;3902;49.474;8.616;2024-01-10T06:13:45;0.10;89.20
7720;DHT22;3902;49.474;8.616;2024-01-10T06:16:11;0.10;89.70
7720;DHT22;3902;49.474;8.616;2024-01-10T06:18:38;0.10;89.50
7720;DHT22;3902;49.474;8.616;2024-01-10T06:21:04;0.10;89.90
7720;DHT22;3902;49.474;8.616;2024-01-10T06:23:29;0.10;90.00
7720;DHT22;3902;49.474;8.616;2024-01-10T06:25:55;0.10;89.90
7720;DHT22;3902;49.474;8.616;2024-01-10T06:28:21;0.10;90.00
7720;DHT22;3902;49.474;8.616;2024-01-10T06:30:47;0.10;89.80
7720;DHT22;3902;49.474;8.616;2024-01-10T06:33:12;0.10;90.00
7720;DHT22;3902;49.474;8.616;2024-01-10T06:35:39;0.10;90.10
7720;DHT22;3902;49.474;8.616;2024-01-10T06:38:04;0.10;90.30
7720;DHT22;3902;49.474;8.616;2024-01-10T06:40:30;0.10;90.20
7720;DHT22;3902;49.474;8.616;2024-01-10T06:42:55;0.10;90.30
7720;DHT22;3902;49.474;8.616;2024-01-10T06:45:21;0.10;90.40
7720;DHT22;3902;49.474;8.616;2024-01-10T06:47:47;0.10;90.50
7720;DHT22;3902;49.474;8.616;2024-01-10T06:50:12;0.20;90.20
7720;DHT22;3902;49.474;8.616;2024-01-10T06:52:38;0.10;90.10
7720;DHT22;3902;49.474;8.616;2024-01-10T06:55:04;0.10;90.10
7720;DHT22;3902;49.474;8.616;2024-01-10T06:57:30;0.20;90.10
7720;DHT22;3902;49.474;8.616;2024-01-10T06:59:55;0.20;90.20
7720;DHT22;3902;49.474;8.616;2024-01-10T07:02:23;0.20;90.40
7720;DHT22;3902;49.474;8.616;2024-01-10T07:04:48;0.20;90.50
7720;DHT22;3902;49.474;8.616;2024-01-10T07:07:14;0.20;90.40
7720;DHT22;3902;49.474;8.616;2024-01-10T07:09:40;0.20;90.40
7720;DHT22;3902;49.474;8.616;2024-01-10T07:12:07;0.10;90.40
7720;DHT22;3902;49.474;8.616;2024-01-10T07:14:33;0.30;90.50
7720;DHT22;3902;49.474;8.616;2024-01-10T07:16:58;0.30;90.50
7720;DHT22;3902;49.474;8.616;2024-01-10T07:19:25;0.30;90.60
7720;DHT22;3902;49.474;8.616;2024-01-10T07:21:50;0.20;90.50
7720;DHT22;3902;49.474;8.616;2024-01-10T07:24:16;0.20;90.60
7720;DHT22;3902;49.474;8.616;2024-01-10T07:26:41;0.20;90.60
7720;DHT22;3902;49.474;8.616;2024-01-10T07:29:07;0.20;90.60
7720;DHT22;3902;49.474;8.616;2024-01-10T07:31:35;0.20;90.60
7720;DHT22;3902;49.474;8.616;2024-01-10T07:34:01;0.20;90.70
7720;DHT22;3902;49.474;8.616;2024-01-10T07:36:27;0.20;90.70
7720;DHT22;3902;49.474;8.616;2024-01-10T07:38:53;0.20;90.70
7720;DHT22;3902;49.474;8.616;2024-01-10T07:41:19;0.30;90.80
7720;DHT22;3902;49.474;8.616;2024-01-10T07:43:45;0.30;90.90
7720;DHT22;3902;49.474;8.616;2024-01-10T07:46:11;0.30;90.90
7720;DHT22;3902;49.474;8.616;2024-01-10T07:48:36;0.30;90.90
7720;DHT22;3902;49.474;8.616;2024-01-10T07:51:03;0.30;90.90
7720;DHT22;3902;49.474;8.616;2024-01-10T07:53:30;0.40;91.00
7720;DHT22;3902;49.474;8.616;2024-01-10T07:56:02;0.40;91.10
7720;DHT22;3902;49.474;8.616;2024-01-10T07:58:28;0.30;91.10
7720;DHT22;3902;49.474;8.616;2024-01-10T08:00:53;0.40;91.10
7720;DHT22;3902;49.474;8.616;2024-01-10T08:03:19;0.40;91.40
7720;DHT22;3902;49.474;8.616;2024-01-10T08:05:45;0.40;91.30
7720;DHT22;3902;49.474;8.616;2024-01-10T08:08:11;0.50;91.10
7720;DHT22;3902;49.474;8.616;2024-01-10T08:10:38;0.50;91.20
7720;DHT22;3902;49.474;8.616;2024-01-10T08:13:05;0.50;91.10
7720;DHT22;3902;49.474;8.616;2024-01-10T08:15:30;0.50;91.30
7720;DHT22;3902;49.474;8.616;2024-01-10T08:18:00;0.50;91.40
7720;DHT22;3902;49.474;8.616;2024-01-10T08:20:28;0.50;91.30
7720;DHT22;3902;49.474;8.616;2024-01-10T08:22:53;0.50;91.40
7720;DHT22;3902;49.474;8.616;2024-01-10T08:25:19;0.50;91.50
7720;DHT22;3902;49.474;8.616;2024-01-10T08:27:44;0.60;91.30
7720;DHT22;3902;49.474;8.616;2024-01-10T08:30:11;0.60;91.60
7720;DHT22;3902;49.474;8.616;2024-01-10T08:32:36;0.60;91.60
7720;DHT22;3902;49.474;8.616;2024-01-10T08:35:05;0.60;91.30
7720;DHT22;3902;49.474;8.616;2024-01-10T08:37:32;0.60;91.40
7720;DHT22;3902;49.474;8.616;2024-01-10T08:39:58;0.60;91.30
7720;DHT22;3902;49.474;8.616;2024-01-10T08:42:25;0.60;91.40
7720;DHT22;3902;49.474;8.616;2024-01-10T08:44:51;0.70;91.40
7720;DHT22;3902;49.474;8.616;2024-01-10T08:47:16;0.70;91.50
7720;DHT22;3902;49.474;8.616;2024-01-10T08:49:42;0.80;91.50
7720;DHT22;3902;49.474;8.616;2024-01-10T08:52:07;0.80;91.70
7720;DHT22;3902;49.474;8.616;2024-01-10T08:54:33;0.80;91.60
7720;DHT22;3902;49.474;8.616;2024-01-10T08:56:59;0.80;91.70
7720;DHT22;3902;49.474;8.616;2024-01-10T08:59:25;0.90;91.40
7720;DHT22;3902;49.474;8.616;2024-01-10T09:01:53;0.90;91.40
7720;DHT22;3902;49.474;8.616;2024-01-10T09:04:18;0.90;91.30
7720;DHT22;3902;49.474;8.616;2024-01-10T09:06:45;0.90;91.30
7720;DHT22;3902;49.474;8.616;2024-01-10T09:09:11;1.00;91.30
7720;DHT22;3902;49.474;8.616;2024-01-10T09:11:38;1.00;91.30
7720;DHT22;3902;49.474;8.616;2024-01-10T09:14:04;1.00;91.30
7720;DHT22;3902;49.474;8.616;2024-01-10T09:16:29;1.00;91.20
7720;DHT22;3902;49.474;8.616;2024-01-10T09:18:55;1.10;91.20
7720;DHT22;3902;49.474;8.616;2024-01-10T09:21:23;1.20;91.20
7720;DHT22;3902;49.474;8.616;2024-01-10T09:23:50;1.20;91.10
7720;DHT22;3902;49.474;8.616;2024-01-10T09:26:17;1.20;91.10
7720;DHT22;3902;49.474;8.616;2024-01-10T09:28:43;1.30;91.30
7720;DHT22;3902;49.474;8.616;2024-01-10T09:31:09;1.30;91.10
7720;DHT22;3902;49.474;8.616;2024-01-10T09:33:34;1.40;91.20
7720;DHT22;3902;49.474;8.616;2024-01-10T09:36:00;1.40;91.10
7720;DHT22;3902;49.474;8.616;2024-01-10T09:38:26;1.40;91.00
7720;DHT22;3902;49.474;8.616;2024-01-10T09:40:53;1.50;91.10
7720;DHT22;3902;49.474;8.616;2024-01-10T09:43:23;1.60;91.00
7720;DHT22;3902;49.474;8.616;2024-01-10T09:45:49;1.60;91.20
7720;DHT22;3902;49.474;8.616;2024-01-10T09:48:16;1.60;91.20
7720;DHT22;3902;49.474;8.616;2024-01-10T09:50:41;1.70;91.20
7720;DHT22;3902;49.474;8.616;2024-01-10T09:53:12;1.70;91.20
7720;DHT22;3902;49.474;8.616;2024-01-10T09:55:41;1.70;91.10
7720;DHT22;3902;49.474;8.616;2024-01-10T09:58:08;1.80;91.10
7720;DHT22;3902;49.474;8.616;2024-01-10T10:00:36;1.80;90.60
7720;DHT22;3902;49.474;8.616;2024-01-10T10:03:03;1.80;90.70
7720;DHT22;3902;49.474;8.616;2024-01-10T10:05:29;1.80;90.00
7720;DHT22;3902;49.474;8.616;2024-01-10T10:07:55;1.80;90.50
7720;DHT22;3902;49.474;8.616;2024-01-10T10:10:20;1.90;90.50
7720;DHT22;3902;49.474;8.616;2024-01-10T10:12:48;1.90;90.30
7720;DHT22;3902;49.474;8.616;2024-01-10T10:15:16;2.00;90.40
7720;DHT22;3902;49.474;8.616;2024-01-10T10:17:46;2.00;90.10
7720;DHT22;3902;49.474;8.616;2024-01-10T10:23:03;2.00;90.10
7720;DHT22;3902;49.474;8.616;2024-01-10T10:25:34;2.00;90.10
7720;DHT22;3902;49.474;8.616;2024-01-10T10:28:01;2.00;90.00
7720;DHT22;3902;49.474;8.616;2024-01-10T10:30:28;1.90;87.40
7720;DHT22;3902;49.474;8.616;2024-01-10T10:32:54;1.70;87.90
7720;DHT22;3902;49.474;8.616;2024-01-10T10:35:20;1.90;89.70
7720;DHT22;3902;49.474;8.616;2024-01-10T10:37:51;1.80;87.90
7720;DHT22;3902;49.474;8.616;2024-01-10T10:40:18;1.90;89.60
7720;DHT22;3902;49.474;8.616;2024-01-10T10:42:45;1.80;89.00
7720;DHT22;3902;49.474;8.616;2024-01-10T10:45:14;1.90;89.50
7720;DHT22;3902;49.474;8.616;2024-01-10T10:47:43;2.00;89.60
7720;DHT22;3902;49.474;8.616;2024-01-10T10:50:22;2.00;89.70
7720;DHT22;3902;49.474;8.616;2024-01-10T10:52:49;2.00;89.80
7720;DHT22;3902;49.474;8.616;2024-01-10T10:55:16;2.00;89.00
7720;DHT22;3902;49.474;8.616;2024-01-10T10:57:46;2.00;89.50
7720;DHT22;3902;49.474;8.616;2024-01-10T11:00:19;2.10;90.00
7720;DHT22;3902;49.474;8.616;2024-01-10T11:02:46;2.10;88.50
7720;DHT22;3902;49.474;8.616;2024-01-10T11:05:12;2.10;89.60
7720;DHT22;3902;49.474;8.616;2024-01-10T11:07:42;2.20;88.90
7720;DHT22;3902;49.474;8.616;2024-01-10T11:10:12;2.10;88.80
7720;DHT22;3902;49.474;8.616;2024-01-10T11:23:49;3.60;89.70
7720;DHT22;3902;49.474;8.616;2024-01-10T11:26:16;4.30;88.50
7720;DHT22;3902;49.474;8.616;2024-01-10T11:28:42;5.30;87.20
7720;DHT22;3902;49.474;8.616;2024-01-10T11:31:08;6.30;83.80
7720;DHT22;3902;49.474;8.616;2024-01-10T11:33:36;7.20;82.40
7720;DHT22;3902;49.474;8.616;2024-01-10T11:36:18;8.10;80.30
7720;DHT22;3902;49.474;8.616;2024-01-10T11:39:03;9.00;78.70
7720;DHT22;3902;49.474;8.616;2024-01-10T11:46:56;11.00;73.00
7720;DHT22;3902;49.474;8.616;2024-01-10T11:49:23;11.60;70.90
7720;DHT22;3902;49.474;8.616;2024-01-10T11:51:52;11.90;70.00
7720;DHT22;3902;49.474;8.616;2024-01-10T11:54:40;12.40;69.30
7720;DHT22;3902;49.474;8.616;2024-01-10T11:57:21;12.30;65.80
7720;DHT22;3902;49.474;8.616;2024-01-10T11:59:50;12.50;66.40
7720;DHT22;3902;49.474;8.616;2024-01-10T12:02:17;12.50;63.30
7720;DHT22;3902;49.474;8.616;2024-01-10T12:04:43;12.60;65.20
7720;DHT22;3902;49.474;8.616;2024-01-10T12:07:09;12.60;65.90
7720;DHT22;3902;49.474;8.616;2024-01-10T12:09:35;12.70;65.60
7720;DHT22;3902;49.474;8.616;2024-01-10T12:12:03;12.70;64.00
7720;DHT22;3902;49.474;8.616;2024-01-10T12:14:29;12.70;64.40
7720;DHT22;3902;49.474;8.616;2024-01-10T12:16:56;12.90;64.50
7720;DHT22;3902;49.474;8.616;2024-01-10T12:19:21;13.00;62.70
7720;DHT22;3902;49.474;8.616;2024-01-10T12:21:48;13.20;64.20
7720;DHT22;3902;49.474;8.616;2024-01-10T12:24:14;13.40;64.40
7720;DHT22;3902;49.474;8.616;2024-01-10T12:26:47;13.70;62.80
7720;DHT22;3902;49.474;8.616;2024-01-10T12:29:13;13.90;62.60
7720;DHT22;3902;49.474;8.616;2024-01-10T12:31:42;13.90;59.90
7720;DHT22;3902;49.474;8.616;2024-01-10T12:34:09;14.30;61.10
7720;DHT22;3902;49.474;8.616;2024-01-10T12:36:35;14.60;61.50
7720;DHT22;3902;49.474;8.616;2024-01-10T12:39:01;13.90;59.30
7720;DHT22;3902;49.474;8.616;2024-01-10T12:41:27;14.10;58.20
7720;DHT22;3902;49.474;8.616;2024-01-10T12:43:52;14.30;58.40
7720;DHT22;3902;49.474;8.616;2024-01-10T12:46:19;14.30;59.50
7720;DHT22;3902;49.474;8.616;2024-01-10T12:48:45;14.50;60.00
7720;DHT22;3902;49.474;8.616;2024-01-10T12:51:11;14.40;59.40
7720;DHT22;3902;49.474;8.616;2024-01-10T12:53:38;14.40;59.50
7720;DHT22;3902;49.474;8.616;2024-01-10T12:56:06;14.40;57.80
7720;DHT22;3902;49.474;8.616;2024-01-10T12:58:33;13.80;57.00
7720;DHT22;3902;49.474;8.616;2024-01-10T13:00:58;13.70;56.90
7720;DHT22;3902;49.474;8.616;2024-01-10T13:03:24;13.80;59.60
7720;DHT22;3902;49.474;8.616;2024-01-10T13:05:53;13.70;57.40
7720;DHT22;3902;49.474;8.616;2024-01-10T13:08:19;13.20;56.70
7720;DHT22;3902;49.474;8.616;2024-01-10T13:10:48;12.80;59.40
7720;DHT22;3902;49.474;8.616;2024-01-10T13:13:14;12.90;59.80
7720;DHT22;3902;49.474;8.616;2024-01-10T13:15:40;12.80;59.40
7720;DHT22;3902;49.474;8.616;2024-01-10T13:18:05;12.90;60.50
7720;DHT22;3902;49.474;8.616;2024-01-10T13:20:32;12.40;58.90
7720;DHT22;3902;49.474;8.616;2024-01-10T13:22:57;12.00;59.40
7720;DHT22;3902;49.474;8.616;2024-01-10T13:25:23;12.10;61.20
7720;DHT22;3902;49.474;8.616;2024-01-10T13:27:52;12.00;60.60
7720;DHT22;3902;49.474;8.616;2024-01-10T13:30:18;11.80;61.40
7720;DHT22;3902;49.474;8.616;2024-01-10T13:32:46;11.60;61.90
7720;DHT22;3902;49.474;8.616;2024-01-10T13:35:13;11.20;61.30
7720;DHT22;3902;49.474;8.616;2024-01-10T13:37:39;10.40;61.10
7720;DHT22;3902;49.474;8.616;2024-01-10T13:40:06;10.40;63.50
7720;DHT22;3902;49.474;8.616;2024-01-10T13:42:32;10.40;64.00
7720;DHT22;3902;49.474;8.616;2024-01-10T13:44:58;10.40;64.70
7720;DHT22;3902;49.474;8.616;2024-01-10T13:47:24;10.30;64.50
7720;DHT22;3902;49.474;8.616;2024-01-10T13:49:49;10.10;65.20
7720;DHT22;3902;49.474;8.616;2024-01-10T13:52:14;9.80;67.00
7720;DHT22;3902;49.474;8.616;2024-01-10T13:54:40;9.40;67.20
7720;DHT22;3902;49.474;8.616;2024-01-10T13:57:06;9.20;67.80
7720;DHT22;3902;49.474;8.616;2024-01-10T13:59:31;8.90;68.20
7720;DHT22;3902;49.474;8.616;2024-01-10T14:01:57;8.80;68.60
7720;DHT22;3902;49.474;8.616;2024-01-10T14:04:24;8.60;69.00
7720;DHT22;3902;49.474;8.616;2024-01-10T14:06:50;8.50;69.10
7720;DHT22;3902;49.474;8.616;2024-01-10T14:09:16;8.30;69.30
7720;DHT22;3902;49.474;8.616;2024-01-10T14:11:43;8.10;69.60
7720;DHT22;3902;49.474;8.616;2024-01-10T14:14:10;7.90;70.50
7720;DHT22;3902;49.474;8.616;2024-01-10T14:16:35;7.50;68.70
7720;DHT22;3902;49.474;8.616;2024-01-10T14:19:01;7.40;71.10
7720;DHT22;3902;49.474;8.616;2024-01-10T14:21:26;7.40;71.60
7720;DHT22;3902;49.474;8.616;2024-01-10T14:23:52;7.20;71.50
7720;DHT22;3902;49.474;8.616;2024-01-10T14:26:18;7.00;72.60
7720;DHT22;3902;49.474;8.616;2024-01-10T14:28:43;6.80;72.30
7720;DHT22;3902;49.474;8.616;2024-01-10T14:31:10;6.60;71.80
7720;DHT22;3902;49.474;8.616;2024-01-10T14:33:39;6.40;71.60
7720;DHT22;3902;49.474;8.616;2024-01-10T14:36:05;6.30;73.20
7720;DHT22;3902;49.474;8.616;2024-01-10T14:38:30;6.20;74.20
7720;DHT22;3902;49.474;8.616;2024-01-10T14:40:56;6.20;74.80
7720;DHT22;3902;49.474;8.616;2024-01-10T14:43:21;6.10;74.70
7720;DHT22;3902;49.474;8.616;2024-01-10T14:45:47;5.90;75.60
7720;DHT22;3902;49.474;8.616;2024-01-10T14:48:14;5.80;75.90
7720;DHT22;3902;49.474;8.616;2024-01-10T14:50:39;5.80;76.30
7720;DHT22;3902;49.474;8.616;2024-01-10T14:53:05;5.70;76.30
7720;DHT22;3902;49.474;8.616;2024-01-10T14:55:30;5.60;76.30
7720;DHT22;3902;49.474;8.616;2024-01-10T14:57:56;5.50;76.90
7720;DHT22;3902;49.474;8.616;2024-01-10T15:00:21;5.40;77.50
7720;DHT22;3902;49.474;8.616;2024-01-10T15:02:47;5.30;77.90
7720;DHT22;3902;49.474;8.616;2024-01-10T15:05:12;5.20;78.40
7720;DHT22;3902;49.474;8.616;2024-01-10T15:07:38;5.10;78.10
7720;DHT22;3902;49.474;8.616;2024-01-10T15:10:04;5.10;78.10
7720;DHT22;3902;49.474;8.616;2024-01-10T15:12:30;5.10;78.50
7720;DHT22;3902;49.474;8.616;2024-01-10T15:14:56;5.10;78.90
7720;DHT22;3902;49.474;8.616;2024-01-10T15:17:28;5.00;79.60
7720;DHT22;3902;49.474;8.616;2024-01-10T15:19:53;4.90;79.50
7720;DHT22;3902;49.474;8.616;2024-01-10T15:22:20;4.90;79.80
7720;DHT22;3902;49.474;8.616;2024-01-10T15:24:45;4.80;80.20
7720;DHT22;3902;49.474;8.616;2024-01-10T15:27:12;4.60;81.00
7720;DHT22;3902;49.474;8.616;2024-01-10T15:29:37;4.60;81.40
7720;DHT22;3902;49.474;8.616;2024-01-10T15:32:04;4.50;81.80
7720;DHT22;3902;49.474;8.616;2024-01-10T15:34:30;4.30;82.30
7720;DHT22;3902;49.474;8.616;2024-01-10T15:36:55;4.30;82.50
7720;DHT22;3902;49.474;8.616;2024-01-10T15:39:21;4.20;82.60
7720;DHT22;3902;49.474;8.616;2024-01-10T15:41:47;4.10;83.10
7720;DHT22;3902;49.474;8.616;2024-01-10T15:44:14;4.00;83.60
7720;DHT22;3902;49.474;8.616;2024-01-10T15:46:40;3.90;83.60
7720;DHT22;3902;49.474;8.616;2024-01-10T15:49:05;3.90;83.80
7720;DHT22;3902;49.474;8.616;2024-01-10T15:51:31;3.80;84.10
7720;DHT22;3902;49.474;8.616;2024-01-10T15:53:56;3.70;84.50
7720;DHT22;3902;49.474;8.616;2024-01-10T15:56:24;3.60;84.70
7720;DHT22;3902;49.474;8.616;2024-01-10T15:58:59;3.50;85.30
7720;DHT22;3902;49.474;8.616;2024-01-10T16:01:26;3.50;86.20
7720;DHT22;3902;49.474;8.616;2024-01-10T16:03:52;3.30;87.00
7720;DHT22;3902;49.474;8.616;2024-01-10T16:06:18;3.30;87.60
7720;DHT22;3902;49.474;8.616;2024-01-10T16:08:44;3.30;87.10
7720;DHT22;3902;49.474;8.616;2024-01-10T16:11:10;3.30;87.00
7720;DHT22;3902;49.474;8.616;2024-01-10T16:13:35;3.30;87.20
7720;DHT22;3902;49.474;8.616;2024-01-10T16:16:01;3.30;87.30
7720;DHT22;3902;49.474;8.616;2024-01-10T16:18:30;3.20;87.50
7720;DHT22;3902;49.474;8.616;2024-01-10T16:20:55;3.20;88.10
7720;DHT22;3902;49.474;8.616;2024-01-10T16:23:21;3.10;89.00
7720;DHT22;3902;49.474;8.616;2024-01-10T16:25:47;3.10;88.90
7720;DHT22;3902;49.474;8.616;2024-01-10T16:28:12;3.00;88.80